createdAt,value
2023-10-23T00:01:22.749Z,47.5
2023-10-23T00:06:41.128Z,48.1
2023-10-23T00:11:59.590Z,48.3
2023-10-23T00:17:18.114Z,47.3
2023-10-23T00:22:36.428Z,47.1
2023-10-23T00:27:55.055Z,48
2023-10-23T00:33:13.841Z,46.9
2023-10-23T00:38:32.472Z,46.8
2023-10-23T00:43:50.851Z,47.5
2023-10-23T00:49:09.254Z,47.9
2023-10-23T00:54:27.473Z,47.7
2023-10-23T00:59:45.797Z,47.6
2023-10-23T01:05:04.154Z,47.7
2023-10-23T01:10:22.471Z,48.1
2023-10-23T01:15:40.972Z,48.1
2023-10-23T01:20:59.171Z,47.9
2023-10-23T01:26:17.303Z,45.5
2023-10-23T01:31:35.711Z,46.5
2023-10-23T01:36:53.764Z,47.1
2023-10-23T01:42:11.886Z,46.6
2023-10-23T01:47:30.301Z,47
2023-10-23T01:52:48.519Z,47.1
2023-10-23T01:58:06.693Z,47.3
2023-10-23T02:03:25.334Z,47.5
2023-10-23T02:08:43.802Z,47.7
2023-10-23T02:14:02.116Z,47.7
2023-10-23T02:19:20.522Z,48.6
2023-10-23T02:24:39.601Z,48.1
2023-10-23T02:29:58.087Z,47.7
2023-10-23T02:35:16.625Z,48.8
2023-10-23T02:40:35.316Z,49
2023-10-23T02:45:38.007Z,48.8
2023-10-23T02:50:56.007Z,49
2023-10-23T02:56:14.523Z,48.3
2023-10-23T03:01:32.962Z,48.9
2023-10-23T03:06:51.103Z,48
2023-10-23T03:12:09.826Z,48.7
2023-10-23T03:17:28.388Z,48.8
2023-10-23T03:22:46.734Z,49.1
2023-10-23T03:28:05.111Z,48.9
2023-10-23T03:33:23.388Z,48.1
2023-10-23T03:38:41.848Z,48.7
2023-10-23T03:44:00.126Z,48.7
2023-10-23T03:49:18.467Z,48
2023-10-23T03:54:36.780Z,48.1
2023-10-23T03:59:54.820Z,48.2
2023-10-23T04:05:12.747Z,48.5
2023-10-23T04:10:30.887Z,49
2023-10-23T04:15:49.091Z,48.9
2023-10-23T04:21:07.158Z,48.7
2023-10-23T04:26:25.858Z,47.7
2023-10-23T04:31:27.035Z,47.7
2023-10-23T04:36:45.448Z,48.5
2023-10-23T04:42:03.713Z,48.4
2023-10-23T04:47:22.054Z,47.6
2023-10-23T04:52:40.416Z,48.4
2023-10-23T04:57:58.750Z,47.8
2023-10-23T05:03:17.025Z,48.8
2023-10-23T05:08:35.198Z,48.1
2023-10-23T05:13:53.319Z,48.6
2023-10-23T05:19:12.026Z,48.8
2023-10-23T05:24:30.397Z,49.1
2023-10-23T05:29:48.550Z,49.3
2023-10-23T05:35:06.925Z,48.7
2023-10-23T05:40:25.028Z,49
2023-10-23T05:45:43.705Z,49.7
2023-10-23T05:51:01.974Z,50
2023-10-23T05:56:20.257Z,49.4
2023-10-23T06:01:38.337Z,50.1
2023-10-23T06:06:57.140Z,49.8
2023-10-23T06:12:15.189Z,49.3
2023-10-23T06:17:33.416Z,49.5
2023-10-23T06:22:52.147Z,50
2023-10-23T06:28:10.483Z,49.9
2023-10-23T06:33:29.075Z,50.2
2023-10-23T06:38:47.399Z,49.6
2023-10-23T06:44:05.702Z,49.4
2023-10-23T06:49:24.114Z,48.3
2023-10-23T06:54:42.479Z,49.1
2023-10-23T07:00:00.687Z,47
2023-10-23T07:05:19.233Z,46.9
2023-10-23T07:10:37.856Z,47.4
2023-10-23T07:15:56.297Z,46.8
2023-10-23T07:21:17.115Z,47.5
2023-10-23T07:26:35.153Z,47.5
2023-10-23T07:31:53.556Z,48.9
2023-10-23T07:37:11.591Z,48.8
2023-10-23T07:42:29.844Z,48.7
2023-10-23T07:47:48.304Z,47.9
2023-10-23T07:53:06.898Z,47.8
2023-10-23T07:58:25.564Z,47.5
2023-10-23T08:03:44.557Z,48
2023-10-23T08:09:02.856Z,47.3
2023-10-23T08:14:21.196Z,48
2023-10-23T08:19:24.018Z,47.5
2023-10-23T08:24:42.482Z,46.9
2023-10-23T08:30:01.037Z,47.1
2023-10-23T08:35:18.959Z,47.9
2023-10-23T08:40:37.132Z,48.1
2023-10-23T08:45:55.801Z,47.8
2023-10-23T08:51:14.292Z,48
2023-10-23T08:56:32.855Z,47
2023-10-23T09:01:51.473Z,47.8
2023-10-23T09:07:09.622Z,47.1
2023-10-23T09:12:27.772Z,47.3
2023-10-23T09:17:46.233Z,47.5
2023-10-23T09:23:04.805Z,47.5
2023-10-23T09:28:22.977Z,47.6
2023-10-23T09:33:41.696Z,47.4
2023-10-23T09:39:01.083Z,47.2
2023-10-23T09:44:19.477Z,48
2023-10-23T09:49:38.297Z,47.1
2023-10-23T09:54:56.720Z,47.8
2023-10-23T10:00:15.146Z,47.7
2023-10-23T10:05:33.781Z,47.4
2023-10-23T10:10:52.361Z,47
2023-10-23T10:16:10.865Z,47.5
2023-10-23T10:21:29.517Z,47.6
2023-10-23T10:26:47.843Z,47.3
2023-10-23T10:32:16.066Z,46.8
2023-10-23T10:37:34.626Z,46.9
2023-10-23T10:42:53.132Z,46.6
2023-10-23T10:48:11.885Z,46.6
2023-10-23T10:53:30.159Z,46.9
2023-10-23T10:58:48.486Z,47.4
2023-10-23T11:04:07.027Z,47.5
2023-10-23T11:09:25.454Z,47.5
2023-10-23T11:14:43.636Z,46.5
2023-10-23T11:20:01.788Z,46.8
2023-10-23T11:25:20.253Z,47.1
2023-10-23T11:30:38.467Z,46.7
2023-10-23T11:35:58.555Z,46.5
2023-10-23T11:41:16.779Z,47.5
2023-10-23T11:46:36.916Z,47.3
2023-10-23T11:51:55.462Z,47.5
2023-10-23T11:57:13.826Z,47
2023-10-23T12:02:32.885Z,47.1
2023-10-23T12:07:51.216Z,47.3
2023-10-23T12:13:10.156Z,46.6
2023-10-23T12:18:28.575Z,47.4
2023-10-23T12:23:47.153Z,46.7
2023-10-23T12:29:05.506Z,47.2
2023-10-23T12:34:24.541Z,46.9
2023-10-23T12:39:42.887Z,46.5
2023-10-23T12:45:01.137Z,47.3
2023-10-23T12:50:19.268Z,47.5
2023-10-23T12:55:37.624Z,47.4
2023-10-23T13:00:55.610Z,46.8
2023-10-23T13:06:13.898Z,47.5
2023-10-23T13:11:31.977Z,47.3
2023-10-23T13:16:50.699Z,47.2
2023-10-23T13:22:12.481Z,46.7
2023-10-23T13:27:30.896Z,46.7
2023-10-23T13:32:50.113Z,47.4
2023-10-23T13:38:08.378Z,47.4
2023-10-23T13:43:27.188Z,46.7
2023-10-23T13:48:52.269Z,47.3
2023-10-23T13:54:10.580Z,46.7
2023-10-23T13:59:28.772Z,47.5
2023-10-23T14:04:47.230Z,47.5
2023-10-23T14:10:05.526Z,47.5
2023-10-23T14:15:24.160Z,46.8
2023-10-23T14:20:42.510Z,47.1
2023-10-23T14:26:00.651Z,47.2
2023-10-23T14:31:19.135Z,47.3
2023-10-23T14:36:37.165Z,46.9
2023-10-23T14:41:55.557Z,46.9
2023-10-23T14:46:58.832Z,47.6
2023-10-23T14:52:17.115Z,47.5
2023-10-23T14:57:35.712Z,46.7
2023-10-23T15:02:54.224Z,46.9
2023-10-23T15:08:12.403Z,47.3
2023-10-23T15:13:30.440Z,47.5
2023-10-23T15:18:48.965Z,47.3
2023-10-23T15:24:06.943Z,47.5
2023-10-23T15:29:24.907Z,46.8
2023-10-23T15:34:43.306Z,47.1
2023-10-23T15:40:01.865Z,47.4
2023-10-23T15:45:20.970Z,46.7
2023-10-23T15:50:39.106Z,47
2023-10-23T15:55:57.517Z,46.5
2023-10-23T16:01:16.089Z,46.4
2023-10-23T16:06:34.501Z,46.6
2023-10-23T16:11:52.806Z,46.3
2023-10-23T16:17:11.167Z,46.1
2023-10-23T16:22:29.481Z,46.6
2023-10-23T16:27:48.254Z,46.2
2023-10-23T16:32:51.315Z,46.1
2023-10-23T16:38:09.857Z,45.5
2023-10-23T16:43:28.198Z,46.3
2023-10-23T16:48:46.851Z,46.3
2023-10-23T16:54:05.540Z,46.1
2023-10-23T16:59:39.356Z,45.2
2023-10-23T17:04:58.839Z,45.9
2023-10-23T17:10:17.782Z,46.1
2023-10-23T17:15:36.375Z,45.6
2023-10-23T17:20:54.903Z,45.2
2023-10-23T17:26:13.085Z,45.9
2023-10-23T17:31:31.580Z,45.9
2023-10-23T17:36:49.740Z,45.3
2023-10-23T17:42:08.137Z,45.8
2023-10-23T17:47:26.675Z,46.1
2023-10-23T17:52:45.427Z,45.6
2023-10-23T17:58:03.784Z,45.9
2023-10-23T18:03:22.827Z,45.4
2023-10-23T18:08:41.145Z,45.3
2023-10-23T18:13:59.742Z,45.1
2023-10-23T18:19:20.394Z,45.9
2023-10-23T18:24:38.495Z,46
2023-10-23T18:29:56.829Z,45.6
2023-10-23T18:35:15.302Z,45.5
2023-10-23T18:40:36.669Z,46.2
2023-10-23T18:45:55.044Z,46.3
2023-10-23T18:51:14.400Z,46.6
2023-10-23T18:56:32.755Z,47
2023-10-23T19:01:51.179Z,47.3
2023-10-23T19:07:09.458Z,47.5
2023-10-23T19:12:27.556Z,47.9
2023-10-23T19:17:46.318Z,47.5
2023-10-23T19:23:04.775Z,48.2
2023-10-23T19:28:23.249Z,48.5
2023-10-23T19:33:41.796Z,48.7
2023-10-23T19:39:00.116Z,47.6
2023-10-23T19:44:18.661Z,47
2023-10-23T19:49:36.917Z,47.9
2023-10-23T19:55:46.714Z,47.1
2023-10-23T20:01:05.939Z,47.6
2023-10-23T20:06:24.085Z,47.5
2023-10-23T20:11:42.205Z,47.6
2023-10-23T20:17:00.848Z,46.5
2023-10-23T20:22:19.887Z,46.8
2023-10-23T20:27:38.471Z,48.2
2023-10-23T20:32:56.849Z,48.2
2023-10-23T20:38:15.027Z,48.8
2023-10-23T20:43:33.280Z,48.2
2023-10-23T20:48:51.601Z,48.6
2023-10-23T20:54:09.739Z,48.4
2023-10-23T20:59:28.129Z,48.4
2023-10-23T21:04:46.349Z,48.5
2023-10-23T21:10:05.022Z,48.2
2023-10-23T21:15:23.182Z,49
2023-10-23T21:20:41.525Z,48.2
2023-10-23T21:26:00.016Z,49.1
2023-10-23T21:31:18.666Z,48.1
2023-10-23T21:36:36.850Z,48.1
2023-10-23T21:41:55.888Z,48.6
2023-10-23T21:47:14.432Z,48.3
2023-10-23T21:52:32.712Z,48.8
2023-10-23T21:57:51.126Z,48.5
2023-10-23T22:03:09.551Z,48
2023-10-23T22:08:27.720Z,48.1
2023-10-23T22:13:46.226Z,47.7
2023-10-23T22:18:51.741Z,47.4
2023-10-23T22:24:10.296Z,48.3
2023-10-23T22:29:28.583Z,47.8
2023-10-23T22:34:47.077Z,47.9
2023-10-23T22:40:05.426Z,47
2023-10-23T22:45:23.824Z,47.2
2023-10-23T22:50:42.332Z,47.8
2023-10-23T22:56:00.919Z,47.5
2023-10-23T23:01:19.277Z,45.2
2023-10-23T23:06:37.304Z,47.1
2023-10-23T23:11:55.448Z,47.5
2023-10-23T23:16:58.739Z,48.1
2023-10-23T23:22:17.444Z,48.1
2023-10-23T23:27:36.055Z,48.5
2023-10-23T23:32:54.463Z,47.9
2023-10-23T23:38:12.526Z,48
2023-10-23T23:43:30.611Z,48
2023-10-23T23:48:48.736Z,48
2023-10-23T23:54:06.912Z,47.9
2023-10-23T23:59:25.140Z,48.1
